sensor_id;sensor_type;location;lat;lon;timestamp;P1;durP1;ratioP1;P2;durP2;ratioP2
59169;SDS011;52474;52.236;5.114;2022-12-07T00:01:18;10.90;;;3.67;;
59169;SDS011;52474;52.236;5.114;2022-12-07T00:03:46;11.38;;;3.90;;
59169;SDS011;52474;52.236;5.114;2022-12-07T00:06:13;10.73;;;3.80;;
59169;SDS011;52474;52.236;5.114;2022-12-07T00:08:40;9.63;;;3.53;;
59169;SDS011;52474;52.236;5.114;2022-12-07T00:11:07;8.00;;;3.22;;
59169;SDS011;52474;52.236;5.114;2022-12-07T00:13:35;9.40;;;3.70;;
59169;SDS011;52474;52.236;5.114;2022-12-07T00:16:02;5.45;;;2.88;;
59169;SDS011;52474;52.236;5.114;2022-12-07T00:18:30;7.38;;;2.80;;
59169;SDS011;52474;52.236;5.114;2022-12-07T00:21:05;7.68;;;3.03;;
59169;SDS011;52474;52.236;5.114;2022-12-07T00:23:34;9.98;;;2.92;;
59169;SDS011;52474;52.236;5.114;2022-12-07T00:26:04;5.63;;;2.75;;
59169;SDS011;52474;52.236;5.114;2022-12-07T00:33:32;4.38;;;2.60;;
59169;SDS011;52474;52.236;5.114;2022-12-07T00:35:59;5.30;;;2.78;;
59169;SDS011;52474;52.236;5.114;2022-12-07T00:38:27;7.47;;;2.92;;
59169;SDS011;52474;52.236;5.114;2022-12-07T00:40:58;6.03;;;2.35;;
59169;SDS011;52474;52.236;5.114;2022-12-07T00:43:25;6.78;;;2.78;;
59169;SDS011;52474;52.236;5.114;2022-12-07T00:45:52;6.82;;;2.75;;
59169;SDS011;52474;52.236;5.114;2022-12-07T00:48:18;6.10;;;2.33;;
59169;SDS011;52474;52.236;5.114;2022-12-07T00:50:44;6.65;;;2.40;;
59169;SDS011;52474;52.236;5.114;2022-12-07T00:53:10;6.35;;;2.30;;
59169;SDS011;52474;52.236;5.114;2022-12-07T00:55:35;7.70;;;2.60;;
59169;SDS011;52474;52.236;5.114;2022-12-07T00:58:01;4.75;;;2.53;;
59169;SDS011;52474;52.236;5.114;2022-12-07T01:00:27;5.97;;;2.33;;
59169;SDS011;52474;52.236;5.114;2022-12-07T01:02:53;5.53;;;2.50;;
59169;SDS011;52474;52.236;5.114;2022-12-07T01:05:19;6.88;;;2.88;;
59169;SDS011;52474;52.236;5.114;2022-12-07T01:07:45;6.90;;;2.85;;
59169;SDS011;52474;52.236;5.114;2022-12-07T01:10:12;5.95;;;2.08;;
59169;SDS011;52474;52.236;5.114;2022-12-07T01:12:39;6.97;;;2.20;;
59169;SDS011;52474;52.236;5.114;2022-12-07T01:15:05;5.45;;;2.60;;
59169;SDS011;52474;52.236;5.114;2022-12-07T01:17:31;6.47;;;2.47;;
59169;SDS011;52474;52.236;5.114;2022-12-07T01:19:57;4.72;;;2.30;;
59169;SDS011;52474;52.236;5.114;2022-12-07T01:22:23;5.80;;;2.30;;
59169;SDS011;52474;52.236;5.114;2022-12-07T01:24:48;6.05;;;1.95;;
59169;SDS011;52474;52.236;5.114;2022-12-07T01:27:14;5.35;;;2.20;;
59169;SDS011;52474;52.236;5.114;2022-12-07T01:29:40;8.73;;;2.85;;
59169;SDS011;52474;52.236;5.114;2022-12-07T01:32:05;4.13;;;2.40;;
59169;SDS011;52474;52.236;5.114;2022-12-07T01:34:31;5.18;;;2.40;;
59169;SDS011;52474;52.236;5.114;2022-12-07T01:37:00;5.90;;;2.25;;
59169;SDS011;52474;52.236;5.114;2022-12-07T01:39:25;7.00;;;1.88;;
59169;SDS011;52474;52.236;5.114;2022-12-07T01:41:52;7.30;;;2.03;;
59169;SDS011;52474;52.236;5.114;2022-12-07T01:44:25;7.05;;;1.58;;
59169;SDS011;52474;52.236;5.114;2022-12-07T01:47:01;4.68;;;1.30;;
59169;SDS011;52474;52.236;5.114;2022-12-07T01:52:01;6.15;;;1.60;;
59169;SDS011;52474;52.236;5.114;2022-12-07T01:54:35;4.40;;;1.40;;
59169;SDS011;52474;52.236;5.114;2022-12-07T01:57:01;8.77;;;1.70;;
59169;SDS011;52474;52.236;5.114;2022-12-07T01:59:28;7.57;;;1.70;;
59169;SDS011;52474;52.236;5.114;2022-12-07T02:01:54;10.25;;;2.47;;
59169;SDS011;52474;52.236;5.114;2022-12-07T02:04:21;4.70;;;1.70;;
59169;SDS011;52474;52.236;5.114;2022-12-07T02:06:48;6.22;;;1.65;;
59169;SDS011;52474;52.236;5.114;2022-12-07T02:09:14;10.27;;;1.98;;
59169;SDS011;52474;52.236;5.114;2022-12-07T02:11:39;7.93;;;1.80;;
59169;SDS011;52474;52.236;5.114;2022-12-07T02:14:06;6.63;;;1.95;;
59169;SDS011;52474;52.236;5.114;2022-12-07T02:19:09;8.68;;;1.50;;
59169;SDS011;52474;52.236;5.114;2022-12-07T02:21:58;6.05;;;1.92;;
59169;SDS011;52474;52.236;5.114;2022-12-07T02:24:52;5.72;;;1.60;;
59169;SDS011;52474;52.236;5.114;2022-12-07T02:30:15;3.78;;;1.60;;
59169;SDS011;52474;52.236;5.114;2022-12-07T02:40:43;7.05;;;1.67;;
59169;SDS011;52474;52.236;5.114;2022-12-07T02:45:45;6.82;;;1.50;;
59169;SDS011;52474;52.236;5.114;2022-12-07T02:48:13;7.28;;;1.80;;
59169;SDS011;52474;52.236;5.114;2022-12-07T02:50:48;5.72;;;1.23;;
59169;SDS011;52474;52.236;5.114;2022-12-07T02:53:37;8.70;;;1.95;;
59169;SDS011;52474;52.236;5.114;2022-12-07T02:56:06;3.40;;;1.10;;
59169;SDS011;52474;52.236;5.114;2022-12-07T02:59:02;4.80;;;1.40;;
59169;SDS011;52474;52.236;5.114;2022-12-07T03:01:34;2.13;;;1.23;;
59169;SDS011;52474;52.236;5.114;2022-12-07T03:06:57;4.72;;;1.50;;
59169;SDS011;52474;52.236;5.114;2022-12-07T03:12:44;1.38;;;0.90;;
59169;SDS011;52474;52.236;5.114;2022-12-07T03:15:25;2.85;;;1.10;;
59169;SDS011;52474;52.236;5.114;2022-12-07T03:17:54;3.75;;;0.90;;
59169;SDS011;52474;52.236;5.114;2022-12-07T03:20:23;1.92;;;1.20;;
59169;SDS011;52474;52.236;5.114;2022-12-07T03:22:51;5.25;;;1.67;;
59169;SDS011;52474;52.236;5.114;2022-12-07T03:25:19;2.85;;;0.93;;
59169;SDS011;52474;52.236;5.114;2022-12-07T03:27:58;8.00;;;1.55;;
59169;SDS011;52474;52.236;5.114;2022-12-07T03:31:01;5.63;;;1.38;;
59169;SDS011;52474;52.236;5.114;2022-12-07T03:33:31;4.72;;;1.10;;
59169;SDS011;52474;52.236;5.114;2022-12-07T03:36:07;6.03;;;1.20;;
59169;SDS011;52474;52.236;5.114;2022-12-07T03:38:38;7.70;;;1.40;;
59169;SDS011;52474;52.236;5.114;2022-12-07T03:41:18;4.13;;;1.95;;
59169;SDS011;52474;52.236;5.114;2022-12-07T03:43:46;5.05;;;1.40;;
59169;SDS011;52474;52.236;5.114;2022-12-07T03:46:17;3.63;;;1.00;;
59169;SDS011;52474;52.236;5.114;2022-12-07T03:51:38;9.63;;;1.63;;
59169;SDS011;52474;52.236;5.114;2022-12-07T03:54:24;8.05;;;2.88;;
59169;SDS011;52474;52.236;5.114;2022-12-07T03:56:55;9.30;;;1.30;;
59169;SDS011;52474;52.236;5.114;2022-12-07T03:59:23;10.65;;;1.40;;
59169;SDS011;52474;52.236;5.114;2022-12-07T04:01:51;3.58;;;1.77;;
59169;SDS011;52474;52.236;5.114;2022-12-07T04:04:20;4.82;;;1.25;;
59169;SDS011;52474;52.236;5.114;2022-12-07T04:06:46;4.15;;;1.27;;
59169;SDS011;52474;52.236;5.114;2022-12-07T04:09:12;4.15;;;1.25;;
59169;SDS011;52474;52.236;5.114;2022-12-07T04:11:39;5.28;;;1.20;;
59169;SDS011;52474;52.236;5.114;2022-12-07T04:14:05;8.02;;;1.40;;
59169;SDS011;52474;52.236;5.114;2022-12-07T04:16:44;6.43;;;1.48;;
59169;SDS011;52474;52.236;5.114;2022-12-07T04:19:31;4.63;;;1.42;;
59169;SDS011;52474;52.236;5.114;2022-12-07T04:21:58;10.90;;;1.38;;
59169;SDS011;52474;52.236;5.114;2022-12-07T04:24:25;6.05;;;1.10;;
59169;SDS011;52474;52.236;5.114;2022-12-07T04:26:51;5.90;;;1.40;;
59169;SDS011;52474;52.236;5.114;2022-12-07T04:29:18;4.75;;;0.90;;
59169;SDS011;52474;52.236;5.114;2022-12-07T04:31:44;6.95;;;1.10;;
59169;SDS011;52474;52.236;5.114;2022-12-07T04:34:10;3.90;;;1.08;;
59169;SDS011;52474;52.236;5.114;2022-12-07T04:36:36;4.35;;;1.02;;
59169;SDS011;52474;52.236;5.114;2022-12-07T04:39:03;6.72;;;1.30;;
59169;SDS011;52474;52.236;5.114;2022-12-07T04:41:31;5.28;;;1.20;;
59169;SDS011;52474;52.236;5.114;2022-12-07T04:44:00;6.18;;;1.20;;
59169;SDS011;52474;52.236;5.114;2022-12-07T04:46:28;5.78;;;1.33;;
59169;SDS011;52474;52.236;5.114;2022-12-07T04:48:55;5.10;;;1.30;;
59169;SDS011;52474;52.236;5.114;2022-12-07T04:51:22;7.22;;;1.27;;
59169;SDS011;52474;52.236;5.114;2022-12-07T04:53:50;6.53;;;1.10;;
59169;SDS011;52474;52.236;5.114;2022-12-07T04:56:16;7.25;;;1.27;;
59169;SDS011;52474;52.236;5.114;2022-12-07T04:58:44;2.53;;;1.08;;
59169;SDS011;52474;52.236;5.114;2022-12-07T05:01:11;2.03;;;0.88;;
59169;SDS011;52474;52.236;5.114;2022-12-07T05:03:37;5.13;;;1.40;;
59169;SDS011;52474;52.236;5.114;2022-12-07T05:06:03;6.22;;;1.48;;
59169;SDS011;52474;52.236;5.114;2022-12-07T05:08:29;4.45;;;1.30;;
59169;SDS011;52474;52.236;5.114;2022-12-07T05:10:55;6.93;;;1.30;;
59169;SDS011;52474;52.236;5.114;2022-12-07T05:13:21;6.30;;;1.08;;
59169;SDS011;52474;52.236;5.114;2022-12-07T05:15:47;4.10;;;1.10;;
59169;SDS011;52474;52.236;5.114;2022-12-07T05:18:13;3.35;;;1.08;;
59169;SDS011;52474;52.236;5.114;2022-12-07T05:20:40;6.28;;;1.48;;
59169;SDS011;52474;52.236;5.114;2022-12-07T05:23:06;7.32;;;1.30;;
59169;SDS011;52474;52.236;5.114;2022-12-07T05:25:32;5.40;;;1.40;;
59169;SDS011;52474;52.236;5.114;2022-12-07T05:27:58;8.70;;;1.80;;
59169;SDS011;52474;52.236;5.114;2022-12-07T05:30:24;7.50;;;1.60;;
59169;SDS011;52474;52.236;5.114;2022-12-07T05:32:50;4.25;;;1.27;;
59169;SDS011;52474;52.236;5.114;2022-12-07T05:35:16;4.32;;;1.35;;
59169;SDS011;52474;52.236;5.114;2022-12-07T05:37:42;3.47;;;1.42;;
59169;SDS011;52474;52.236;5.114;2022-12-07T05:40:09;3.42;;;1.23;;
59169;SDS011;52474;52.236;5.114;2022-12-07T05:42:35;2.50;;;0.90;;
59169;SDS011;52474;52.236;5.114;2022-12-07T05:45:00;9.50;;;2.42;;
59169;SDS011;52474;52.236;5.114;2022-12-07T05:47:26;3.85;;;1.02;;
59169;SDS011;52474;52.236;5.114;2022-12-07T05:49:52;5.25;;;1.30;;
59169;SDS011;52474;52.236;5.114;2022-12-07T05:52:17;5.25;;;1.35;;
59169;SDS011;52474;52.236;5.114;2022-12-07T05:54:43;6.47;;;2.15;;
59169;SDS011;52474;52.236;5.114;2022-12-07T05:57:09;7.25;;;1.90;;
59169;SDS011;52474;52.236;5.114;2022-12-07T05:59:34;6.45;;;2.30;;
59169;SDS011;52474;52.236;5.114;2022-12-07T06:02:07;8.68;;;1.75;;
59169;SDS011;52474;52.236;5.114;2022-12-07T06:04:39;10.32;;;1.80;;
59169;SDS011;52474;52.236;5.114;2022-12-07T06:07:07;18.15;;;3.00;;
59169;SDS011;52474;52.236;5.114;2022-12-07T06:09:34;4.13;;;1.40;;
59169;SDS011;52474;52.236;5.114;2022-12-07T06:12:00;6.25;;;1.40;;
59169;SDS011;52474;52.236;5.114;2022-12-07T06:14:44;8.43;;;1.55;;
59169;SDS011;52474;52.236;5.114;2022-12-07T06:17:11;7.18;;;1.48;;
59169;SDS011;52474;52.236;5.114;2022-12-07T06:19:38;4.10;;;1.58;;
59169;SDS011;52474;52.236;5.114;2022-12-07T06:22:03;6.13;;;1.40;;
59169;SDS011;52474;52.236;5.114;2022-12-07T06:24:30;3.03;;;1.40;;
59169;SDS011;52474;52.236;5.114;2022-12-07T06:26:56;6.00;;;1.23;;
59169;SDS011;52474;52.236;5.114;2022-12-07T06:29:21;7.57;;;1.42;;
59169;SDS011;52474;52.236;5.114;2022-12-07T06:31:47;5.22;;;1.58;;
59169;SDS011;52474;52.236;5.114;2022-12-07T06:34:16;5.68;;;1.88;;
59169;SDS011;52474;52.236;5.114;2022-12-07T06:36:44;7.18;;;1.48;;
59169;SDS011;52474;52.236;5.114;2022-12-07T06:39:11;4.07;;;1.30;;
59169;SDS011;52474;52.236;5.114;2022-12-07T06:41:37;4.28;;;1.30;;
59169;SDS011;52474;52.236;5.114;2022-12-07T06:44:03;9.68;;;2.80;;
59169;SDS011;52474;52.236;5.114;2022-12-07T06:46:30;6.43;;;1.45;;
59169;SDS011;52474;52.236;5.114;2022-12-07T06:48:56;5.28;;;1.80;;
59169;SDS011;52474;52.236;5.114;2022-12-07T06:51:22;7.63;;;2.15;;
59169;SDS011;52474;52.236;5.114;2022-12-07T06:53:48;9.43;;;2.65;;
59169;SDS011;52474;52.236;5.114;2022-12-07T06:56:14;11.30;;;2.47;;
59169;SDS011;52474;52.236;5.114;2022-12-07T06:58:40;7.90;;;2.50;;
59169;SDS011;52474;52.236;5.114;2022-12-07T07:01:10;9.95;;;2.10;;
59169;SDS011;52474;52.236;5.114;2022-12-07T07:03:36;6.15;;;2.35;;
59169;SDS011;52474;52.236;5.114;2022-12-07T07:06:02;8.18;;;2.63;;
59169;SDS011;52474;52.236;5.114;2022-12-07T07:08:28;7.65;;;2.30;;
59169;SDS011;52474;52.236;5.114;2022-12-07T07:10:53;6.28;;;2.33;;
59169;SDS011;52474;52.236;5.114;2022-12-07T07:13:19;6.80;;;2.22;;
59169;SDS011;52474;52.236;5.114;2022-12-07T07:15:45;11.93;;;3.92;;
59169;SDS011;52474;52.236;5.114;2022-12-07T07:18:11;7.90;;;2.75;;
59169;SDS011;52474;52.236;5.114;2022-12-07T07:20:36;4.68;;;1.70;;
59169;SDS011;52474;52.236;5.114;2022-12-07T07:23:02;3.88;;;2.28;;
59169;SDS011;52474;52.236;5.114;2022-12-07T07:25:28;4.05;;;2.10;;
59169;SDS011;52474;52.236;5.114;2022-12-07T07:27:54;5.60;;;2.00;;
59169;SDS011;52474;52.236;5.114;2022-12-07T07:30:20;9.45;;;1.80;;
59169;SDS011;52474;52.236;5.114;2022-12-07T07:32:46;8.60;;;2.17;;
59169;SDS011;52474;52.236;5.114;2022-12-07T07:35:12;12.85;;;5.45;;
59169;SDS011;52474;52.236;5.114;2022-12-07T07:37:39;10.65;;;4.07;;
59169;SDS011;52474;52.236;5.114;2022-12-07T07:40:06;12.43;;;4.00;;
59169;SDS011;52474;52.236;5.114;2022-12-07T07:42:32;7.90;;;2.00;;
59169;SDS011;52474;52.236;5.114;2022-12-07T07:44:58;5.30;;;2.25;;
59169;SDS011;52474;52.236;5.114;2022-12-07T07:47:24;7.70;;;2.20;;
59169;SDS011;52474;52.236;5.114;2022-12-07T07:49:49;3.63;;;1.90;;
59169;SDS011;52474;52.236;5.114;2022-12-07T07:52:15;6.00;;;2.20;;
59169;SDS011;52474;52.236;5.114;2022-12-07T07:54:41;5.80;;;1.73;;
59169;SDS011;52474;52.236;5.114;2022-12-07T07:57:06;4.82;;;2.55;;
59169;SDS011;52474;52.236;5.114;2022-12-07T07:59:32;8.63;;;2.05;;
59169;SDS011;52474;52.236;5.114;2022-12-07T08:01:57;10.02;;;1.75;;
59169;SDS011;52474;52.236;5.114;2022-12-07T08:04:23;10.00;;;1.90;;
59169;SDS011;52474;52.236;5.114;2022-12-07T08:06:49;3.88;;;1.58;;
59169;SDS011;52474;52.236;5.114;2022-12-07T08:09:14;5.72;;;1.65;;
59169;SDS011;52474;52.236;5.114;2022-12-07T08:11:40;6.38;;;1.63;;
59169;SDS011;52474;52.236;5.114;2022-12-07T08:14:06;6.03;;;1.80;;
59169;SDS011;52474;52.236;5.114;2022-12-07T08:16:31;8.32;;;2.38;;
59169;SDS011;52474;52.236;5.114;2022-12-07T08:18:57;8.90;;;3.20;;
59169;SDS011;52474;52.236;5.114;2022-12-07T08:21:23;10.15;;;2.55;;
59169;SDS011;52474;52.236;5.114;2022-12-07T08:23:49;7.10;;;2.33;;
59169;SDS011;52474;52.236;5.114;2022-12-07T08:26:15;12.13;;;2.60;;
59169;SDS011;52474;52.236;5.114;2022-12-07T08:28:42;7.35;;;2.78;;
59169;SDS011;52474;52.236;5.114;2022-12-07T08:31:10;5.95;;;2.03;;
59169;SDS011;52474;52.236;5.114;2022-12-07T08:33:38;8.45;;;2.05;;
59169;SDS011;52474;52.236;5.114;2022-12-07T08:36:06;6.15;;;2.15;;
59169;SDS011;52474;52.236;5.114;2022-12-07T08:38:36;9.35;;;2.00;;
59169;SDS011;52474;52.236;5.114;2022-12-07T08:41:03;4.88;;;1.83;;
59169;SDS011;52474;52.236;5.114;2022-12-07T08:43:30;8.40;;;2.22;;
59169;SDS011;52474;52.236;5.114;2022-12-07T08:48:41;5.05;;;2.17;;
59169;SDS011;52474;52.236;5.114;2022-12-07T08:51:11;8.60;;;2.35;;
59169;SDS011;52474;52.236;5.114;2022-12-07T08:53:37;4.88;;;1.92;;
59169;SDS011;52474;52.236;5.114;2022-12-07T08:56:05;4.63;;;1.65;;
59169;SDS011;52474;52.236;5.114;2022-12-07T08:58:33;5.72;;;1.70;;
59169;SDS011;52474;52.236;5.114;2022-12-07T09:00:59;6.82;;;1.65;;
59169;SDS011;52474;52.236;5.114;2022-12-07T09:03:25;6.65;;;1.60;;
59169;SDS011;52474;52.236;5.114;2022-12-07T09:05:52;4.00;;;1.63;;
59169;SDS011;52474;52.236;5.114;2022-12-07T09:08:18;7.47;;;2.95;;
59169;SDS011;52474;52.236;5.114;2022-12-07T09:10:46;7.22;;;1.50;;
59169;SDS011;52474;52.236;5.114;2022-12-07T09:13:12;5.85;;;2.10;;
59169;SDS011;52474;52.236;5.114;2022-12-07T09:15:38;4.50;;;1.50;;
59169;SDS011;52474;52.236;5.114;2022-12-07T09:18:04;10.45;;;2.25;;
59169;SDS011;52474;52.236;5.114;2022-12-07T09:20:30;6.82;;;1.80;;
59169;SDS011;52474;52.236;5.114;2022-12-07T09:22:56;7.53;;;1.35;;
59169;SDS011;52474;52.236;5.114;2022-12-07T09:25:21;6.95;;;1.88;;
59169;SDS011;52474;52.236;5.114;2022-12-07T09:27:47;10.55;;;2.55;;
59169;SDS011;52474;52.236;5.114;2022-12-07T09:30:13;5.63;;;1.30;;
59169;SDS011;52474;52.236;5.114;2022-12-07T09:32:38;9.27;;;1.70;;
59169;SDS011;52474;52.236;5.114;2022-12-07T09:35:04;4.63;;;1.25;;
59169;SDS011;52474;52.236;5.114;2022-12-07T09:37:30;4.90;;;1.42;;
59169;SDS011;52474;52.236;5.114;2022-12-07T09:40:00;5.20;;;1.48;;
59169;SDS011;52474;52.236;5.114;2022-12-07T09:42:27;4.45;;;1.83;;
59169;SDS011;52474;52.236;5.114;2022-12-07T09:44:57;5.28;;;1.65;;
59169;SDS011;52474;52.236;5.114;2022-12-07T09:47:24;4.47;;;1.52;;
59169;SDS011;52474;52.236;5.114;2022-12-07T09:49:50;5.70;;;1.85;;
59169;SDS011;52474;52.236;5.114;2022-12-07T09:52:20;5.75;;;1.92;;
59169;SDS011;52474;52.236;5.114;2022-12-07T09:54:51;3.05;;;1.17;;
59169;SDS011;52474;52.236;5.114;2022-12-07T09:57:17;4.80;;;1.52;;
59169;SDS011;52474;52.236;5.114;2022-12-07T09:59:50;5.78;;;1.35;;
59169;SDS011;52474;52.236;5.114;2022-12-07T10:05:15;4.43;;;0.90;;
59169;SDS011;52474;52.236;5.114;2022-12-07T10:07:45;8.18;;;1.23;;
59169;SDS011;52474;52.236;5.114;2022-12-07T10:10:15;3.10;;;1.20;;
59169;SDS011;52474;52.236;5.114;2022-12-07T10:12:52;4.78;;;1.60;;
59169;SDS011;52474;52.236;5.114;2022-12-07T10:18:14;7.07;;;1.90;;
59169;SDS011;52474;52.236;5.114;2022-12-07T10:20:48;6.35;;;1.50;;
59169;SDS011;52474;52.236;5.114;2022-12-07T10:23:17;960.45;;;99.88;;
59169;SDS011;52474;52.236;5.114;2022-12-07T10:25:44;737.42;;;56.55;;
59169;SDS011;52474;52.236;5.114;2022-12-07T10:28:17;1999.90;;;295.55;;
59169;SDS011;52474;52.236;5.114;2022-12-07T10:30:52;1998.45;;;368.95;;
59169;SDS011;52474;52.236;5.114;2022-12-07T10:35:57;5.10;;;1.60;;
59169;SDS011;52474;52.236;5.114;2022-12-07T10:38:22;7.15;;;1.50;;
59169;SDS011;52474;52.236;5.114;2022-12-07T10:41:09;3.53;;;1.33;;
59169;SDS011;52474;52.236;5.114;2022-12-07T10:43:35;2.83;;;1.02;;
59169;SDS011;52474;52.236;5.114;2022-12-07T10:46:07;5.50;;;1.17;;
59169;SDS011;52474;52.236;5.114;2022-12-07T10:54:21;6.65;;;1.27;;
59169;SDS011;52474;52.236;5.114;2022-12-07T11:10:38;4.55;;;1.02;;
59169;SDS011;52474;52.236;5.114;2022-12-07T11:15:52;200.43;;;13.95;;
59169;SDS011;52474;52.236;5.114;2022-12-07T11:24:16;576.78;;;40.42;;
59169;SDS011;52474;52.236;5.114;2022-12-07T11:26:47;1085.07;;;87.78;;
59169;SDS011;52474;52.236;5.114;2022-12-07T11:32:07;291.90;;;18.55;;
59169;SDS011;52474;52.236;5.114;2022-12-07T11:34:44;164.38;;;10.05;;
59169;SDS011;52474;52.236;5.114;2022-12-07T11:37:36;875.70;;;54.30;;
59169;SDS011;52474;52.236;5.114;2022-12-07T11:42:30;674.85;;;49.13;;
59169;SDS011;52474;52.236;5.114;2022-12-07T11:45:10;234.77;;;15.68;;
59169;SDS011;52474;52.236;5.114;2022-12-07T11:48:01;1158.70;;;105.68;;
59169;SDS011;52474;52.236;5.114;2022-12-07T11:50:34;104.30;;;7.97;;
59169;SDS011;52474;52.236;5.114;2022-12-07T11:58:28;6.13;;;1.77;;
59169;SDS011;52474;52.236;5.114;2022-12-07T12:01:17;42.28;;;4.00;;
59169;SDS011;52474;52.236;5.114;2022-12-07T12:04:03;5.47;;;1.40;;
59169;SDS011;52474;52.236;5.114;2022-12-07T12:06:41;5.68;;;1.52;;
59169;SDS011;52474;52.236;5.114;2022-12-07T12:09:12;4.85;;;1.30;;
59169;SDS011;52474;52.236;5.114;2022-12-07T12:12:15;4.25;;;1.23;;
59169;SDS011;52474;52.236;5.114;2022-12-07T12:20:45;5.75;;;1.15;;
59169;SDS011;52474;52.236;5.114;2022-12-07T12:26:01;7.45;;;2.05;;
59169;SDS011;52474;52.236;5.114;2022-12-07T12:28:53;5.40;;;1.02;;
59169;SDS011;52474;52.236;5.114;2022-12-07T12:33:48;3.00;;;0.90;;
59169;SDS011;52474;52.236;5.114;2022-12-07T12:39:07;2.85;;;0.90;;
59169;SDS011;52474;52.236;5.114;2022-12-07T12:51:41;3.63;;;1.35;;
59169;SDS011;52474;52.236;5.114;2022-12-07T12:59:31;5.57;;;1.48;;
59169;SDS011;52474;52.236;5.114;2022-12-07T13:10:54;4.25;;;0.90;;
59169;SDS011;52474;52.236;5.114;2022-12-07T13:21:01;10.02;;;1.10;;
59169;SDS011;52474;52.236;5.114;2022-12-07T13:23:31;2.67;;;0.75;;
59169;SDS011;52474;52.236;5.114;2022-12-07T13:26:33;4.30;;;0.90;;
59169;SDS011;52474;52.236;5.114;2022-12-07T13:34:48;3.67;;;1.20;;
59169;SDS011;52474;52.236;5.114;2022-12-07T13:37:15;3.40;;;1.00;;
59169;SDS011;52474;52.236;5.114;2022-12-07T13:39:53;3.72;;;0.70;;
59169;SDS011;52474;52.236;5.114;2022-12-07T13:44:54;2.08;;;0.80;;
59169;SDS011;52474;52.236;5.114;2022-12-07T13:47:43;4.05;;;1.17;;
59169;SDS011;52474;52.236;5.114;2022-12-07T13:50:26;4.57;;;1.25;;
59169;SDS011;52474;52.236;5.114;2022-12-07T13:52:54;6.32;;;1.33;;
59169;SDS011;52474;52.236;5.114;2022-12-07T13:55:22;1.45;;;0.80;;
59169;SDS011;52474;52.236;5.114;2022-12-07T13:57:49;3.75;;;0.85;;
59169;SDS011;52474;52.236;5.114;2022-12-07T14:00:21;2.65;;;0.52;;
59169;SDS011;52474;52.236;5.114;2022-12-07T14:08:05;1.05;;;0.63;;
59169;SDS011;52474;52.236;5.114;2022-12-07T14:16:04;2.85;;;0.60;;
59169;SDS011;52474;52.236;5.114;2022-12-07T14:18:43;0.85;;;0.45;;
59169;SDS011;52474;52.236;5.114;2022-12-07T14:23:35;2.60;;;0.60;;
59169;SDS011;52474;52.236;5.114;2022-12-07T14:26:11;3.80;;;0.50;;
59169;SDS011;52474;52.236;5.114;2022-12-07T14:28:41;1.57;;;0.47;;
59169;SDS011;52474;52.236;5.114;2022-12-07T14:31:12;1.17;;;0.55;;
59169;SDS011;52474;52.236;5.114;2022-12-07T14:36:04;0.90;;;0.50;;
59169;SDS011;52474;52.236;5.114;2022-12-07T14:38:30;2.30;;;0.55;;
59169;SDS011;52474;52.236;5.114;2022-12-07T14:40:56;3.85;;;0.82;;
59169;SDS011;52474;52.236;5.114;2022-12-07T14:43:42;4.80;;;0.75;;
59169;SDS011;52474;52.236;5.114;2022-12-07T14:46:08;5.80;;;0.77;;
59169;SDS011;52474;52.236;5.114;2022-12-07T14:48:34;4.45;;;1.20;;
59169;SDS011;52474;52.236;5.114;2022-12-07T14:51:00;4.07;;;1.25;;
59169;SDS011;52474;52.236;5.114;2022-12-07T14:53:31;4.75;;;1.10;;
59169;SDS011;52474;52.236;5.114;2022-12-07T14:56:02;4.00;;;1.55;;
59169;SDS011;52474;52.236;5.114;2022-12-07T14:58:30;3.85;;;1.25;;
59169;SDS011;52474;52.236;5.114;2022-12-07T15:00:57;4.45;;;1.70;;
59169;SDS011;52474;52.236;5.114;2022-12-07T15:03:23;4.53;;;2.15;;
59169;SDS011;52474;52.236;5.114;2022-12-07T15:05:49;5.20;;;1.80;;
59169;SDS011;52474;52.236;5.114;2022-12-07T15:08:14;5.28;;;1.63;;
59169;SDS011;52474;52.236;5.114;2022-12-07T15:10:40;4.13;;;1.10;;
59169;SDS011;52474;52.236;5.114;2022-12-07T15:13:06;3.33;;;1.20;;
59169;SDS011;52474;52.236;5.114;2022-12-07T15:15:52;5.93;;;1.70;;
59169;SDS011;52474;52.236;5.114;2022-12-07T15:18:18;2.70;;;1.17;;
59169;SDS011;52474;52.236;5.114;2022-12-07T15:20:45;7.03;;;1.35;;
59169;SDS011;52474;52.236;5.114;2022-12-07T15:23:11;1.98;;;1.02;;
59169;SDS011;52474;52.236;5.114;2022-12-07T15:25:41;3.90;;;1.00;;
59169;SDS011;52474;52.236;5.114;2022-12-07T15:28:07;1.20;;;1.05;;
59169;SDS011;52474;52.236;5.114;2022-12-07T15:30:33;1.90;;;0.90;;
59169;SDS011;52474;52.236;5.114;2022-12-07T15:32:58;3.58;;;0.98;;
59169;SDS011;52474;52.236;5.114;2022-12-07T15:35:24;4.53;;;1.45;;
59169;SDS011;52474;52.236;5.114;2022-12-07T15:37:50;4.60;;;1.30;;
59169;SDS011;52474;52.236;5.114;2022-12-07T15:40:15;2.70;;;1.30;;
59169;SDS011;52474;52.236;5.114;2022-12-07T15:42:41;4.80;;;1.20;;
59169;SDS011;52474;52.236;5.114;2022-12-07T15:45:07;4.75;;;1.20;;
59169;SDS011;52474;52.236;5.114;2022-12-07T15:47:38;2.58;;;1.45;;
59169;SDS011;52474;52.236;5.114;2022-12-07T15:50:07;3.15;;;1.10;;
59169;SDS011;52474;52.236;5.114;2022-12-07T15:52:35;4.15;;;1.35;;
59169;SDS011;52474;52.236;5.114;2022-12-07T15:55:00;4.50;;;1.48;;
59169;SDS011;52474;52.236;5.114;2022-12-07T15:57:31;4.75;;;1.45;;
59169;SDS011;52474;52.236;5.114;2022-12-07T15:59:58;6.18;;;1.80;;
59169;SDS011;52474;52.236;5.114;2022-12-07T16:02:24;2.75;;;1.35;;
59169;SDS011;52474;52.236;5.114;2022-12-07T16:04:50;8.57;;;1.75;;
59169;SDS011;52474;52.236;5.114;2022-12-07T16:07:17;5.13;;;1.50;;
59169;SDS011;52474;52.236;5.114;2022-12-07T16:09:43;4.05;;;1.60;;
59169;SDS011;52474;52.236;5.114;2022-12-07T16:12:10;2.78;;;1.60;;
59169;SDS011;52474;52.236;5.114;2022-12-07T16:14:37;2.95;;;1.50;;
59169;SDS011;52474;52.236;5.114;2022-12-07T16:17:04;4.57;;;1.23;;
59169;SDS011;52474;52.236;5.114;2022-12-07T16:19:30;5.28;;;1.50;;
59169;SDS011;52474;52.236;5.114;2022-12-07T16:21:57;4.47;;;1.83;;
59169;SDS011;52474;52.236;5.114;2022-12-07T16:24:23;4.80;;;1.90;;
59169;SDS011;52474;52.236;5.114;2022-12-07T16:26:48;5.40;;;1.70;;
59169;SDS011;52474;52.236;5.114;2022-12-07T16:29:14;3.58;;;2.10;;
59169;SDS011;52474;52.236;5.114;2022-12-07T16:31:40;4.78;;;2.30;;
59169;SDS011;52474;52.236;5.114;2022-12-07T16:34:06;4.20;;;2.05;;
59169;SDS011;52474;52.236;5.114;2022-12-07T16:36:32;5.72;;;2.05;;
59169;SDS011;52474;52.236;5.114;2022-12-07T16:38:59;6.90;;;2.70;;
59169;SDS011;52474;52.236;5.114;2022-12-07T16:41:25;7.85;;;2.50;;
59169;SDS011;52474;52.236;5.114;2022-12-07T16:43:51;8.52;;;2.35;;
59169;SDS011;52474;52.236;5.114;2022-12-07T16:46:17;6.05;;;2.10;;
59169;SDS011;52474;52.236;5.114;2022-12-07T16:48:42;7.82;;;2.10;;
59169;SDS011;52474;52.236;5.114;2022-12-07T16:51:10;6.75;;;2.72;;
59169;SDS011;52474;52.236;5.114;2022-12-07T16:53:38;22.83;;;10.80;;
59169;SDS011;52474;52.236;5.114;2022-12-07T16:56:15;15.02;;;7.38;;
59169;SDS011;52474;52.236;5.114;2022-12-07T16:58:41;6.00;;;3.05;;
59169;SDS011;52474;52.236;5.114;2022-12-07T17:01:09;4.78;;;2.83;;
59169;SDS011;52474;52.236;5.114;2022-12-07T17:03:38;6.78;;;2.45;;
59169;SDS011;52474;52.236;5.114;2022-12-07T17:06:10;7.70;;;2.58;;
59169;SDS011;52474;52.236;5.114;2022-12-07T17:08:40;7.07;;;2.20;;
59169;SDS011;52474;52.236;5.114;2022-12-07T17:11:10;3.15;;;2.10;;
59169;SDS011;52474;52.236;5.114;2022-12-07T17:13:40;7.38;;;2.60;;
59169;SDS011;52474;52.236;5.114;2022-12-07T17:16:25;6.63;;;3.20;;
59169;SDS011;52474;52.236;5.114;2022-12-07T17:18:50;5.60;;;3.00;;
59169;SDS011;52474;52.236;5.114;2022-12-07T17:21:16;9.02;;;2.80;;
59169;SDS011;52474;52.236;5.114;2022-12-07T17:23:42;7.63;;;2.65;;
59169;SDS011;52474;52.236;5.114;2022-12-07T17:26:09;8.10;;;3.03;;
59169;SDS011;52474;52.236;5.114;2022-12-07T17:28:42;8.88;;;4.60;;